Terminal Aerodrome Forecast
Issued by NWS

Home | Current Version | Previous Version | Text Only | Print | Product List | Glossary On
Versions: 1 2 3 4 5 6 7 8 9 10 11 12 13 14 15 16 17 18 19 20 21 22 23 24 25 26 27 28 29
000
FTUS43 KDLH 050536
TAFHYR
TAF
KHYR 050536Z 0506/0606 15004KT P6SM BKN040
      TEMPO 0509/0512 1SM BR SCT002
     FM051500 16008KT P6SM SCT100
     FM051800 18010G18KT P6SM SCT100
     FM060000 17005KT P6SM VCSH OVC080 WS020/20035KT=

USA.gov is the U.S. government's official web portal to all federal, state and local government web resources and services.